createdAt,value
2018-04-16T00:00:20.411Z,5.50
2018-04-16T00:10:23.588Z,4.87
2018-04-16T00:20:27.820Z,4.70
2018-04-16T00:30:31.013Z,4.90
2018-04-16T00:40:39.834Z,4.60
2018-04-16T00:50:48.584Z,4.50
2018-04-16T01:00:57.483Z,4.50
2018-04-16T01:11:06.259Z,4.47
2018-04-16T01:21:14.927Z,4.47
2018-04-16T01:31:23.692Z,4.53
2018-04-16T01:41:32.621Z,4.50
2018-04-16T01:51:41.363Z,4.63
2018-04-16T02:01:50.230Z,4.30
2018-04-16T02:12:00.536Z,4.10
2018-04-16T02:22:09.272Z,4.30
2018-04-16T02:32:18.121Z,4.40
2018-04-16T02:42:26.821Z,3.90
2018-04-16T02:52:35.629Z,3.83
2018-04-16T03:02:44.506Z,3.80
2018-04-16T03:23:35.660Z,3.80
2018-04-16T03:33:45.185Z,3.90
2018-04-16T03:43:53.875Z,4.20
2018-04-16T03:53:58.060Z,4.10
2018-04-16T04:04:01.238Z,3.80
2018-04-16T04:14:05.189Z,3.93
2018-04-16T04:34:56.351Z,4.03
2018-04-16T04:44:59.525Z,3.80
2018-04-16T04:55:02.721Z,4.00
2018-04-16T05:05:05.898Z,3.90
2018-04-16T05:15:10.064Z,3.70
2018-04-16T05:25:13.261Z,3.77
2018-04-16T05:35:17.256Z,3.80
2018-04-16T05:45:20.429Z,3.40
2018-04-16T05:55:23.595Z,3.37
2018-04-16T06:05:26.783Z,3.30
2018-04-16T06:15:30.075Z,3.23
2018-04-16T06:25:33.276Z,3.00
2018-04-16T06:35:36.477Z,3.00
2018-04-16T06:45:40.446Z,3.47
2018-04-16T06:55:44.419Z,3.30
2018-04-16T07:05:47.597Z,3.00
2018-04-16T07:15:50.819Z,2.97
2018-04-16T07:25:54.053Z,2.60
2018-04-16T07:35:57.259Z,2.93
2018-04-16T07:46:01.314Z,2.67
2018-04-16T07:56:04.683Z,2.80
2018-04-16T08:06:08.796Z,2.47
2018-04-16T08:16:12.024Z,2.43
2018-04-16T08:26:15.313Z,2.70
2018-04-16T08:36:18.500Z,2.50
2018-04-16T08:46:21.693Z,2.63
2018-04-16T08:56:25.660Z,2.50
2018-04-16T09:06:28.845Z,2.40
2018-04-16T09:16:32.037Z,2.30
2018-04-16T15:35:30.372Z,2.10
2018-04-16T15:45:33.557Z,2.20
2018-04-16T15:55:36.798Z,2.30
2018-04-16T16:05:39.982Z,2.13
2018-04-16T16:15:43.608Z,2.20
2018-04-16T16:25:46.827Z,2.27
2018-04-16T16:35:50.803Z,2.60
2018-04-16T16:45:53.994Z,2.20
2018-04-16T16:55:57.328Z,2.33
2018-04-16T17:06:00.595Z,2.00
2018-04-16T17:16:03.829Z,2.13
2018-04-16T17:26:07.026Z,2.00
2018-04-16T17:36:11.012Z,2.03
2018-04-16T17:46:15.099Z,2.27
2018-04-16T17:56:18.492Z,2.20
2018-04-16T18:06:21.820Z,2.00
2018-04-16T18:16:25.859Z,2.07
2018-04-16T18:26:29.098Z,1.90
2018-04-16T18:36:32.341Z,2.00
2018-04-16T18:46:35.557Z,2.27
2018-04-16T18:56:38.837Z,1.97
2018-04-16T19:06:43.948Z,1.80
2018-04-16T19:16:47.923Z,2.10
2018-04-16T19:26:56.995Z,1.80
2018-04-16T19:37:00.410Z,1.90
2018-04-16T19:47:04.555Z,1.83
2018-04-16T19:57:13.415Z,1.83
2018-04-16T20:07:16.655Z,1.80
2018-04-16T20:17:20.305Z,1.73
2018-04-16T20:27:23.899Z,1.70
2018-04-16T20:37:28.882Z,1.67
2018-04-16T20:47:32.954Z,1.80
2018-04-16T20:57:39.644Z,1.67
2018-04-16T21:07:42.991Z,2.00
2018-04-16T21:17:47.184Z,1.80
2018-04-16T21:27:51.348Z,1.73
2018-04-16T21:37:54.572Z,2.03
2018-04-16T21:47:57.763Z,1.97
2018-04-16T21:58:01.758Z,1.60
2018-04-16T22:08:05.041Z,1.90
2018-04-16T22:18:08.251Z,1.80
2018-04-16T22:28:11.489Z,1.60
2018-04-16T22:38:14.697Z,1.70
2018-04-16T22:48:18.701Z,1.67
2018-04-16T22:58:21.883Z,1.90
2018-04-16T23:08:25.823Z,1.80
2018-04-16T23:18:29.099Z,1.63
2018-04-16T23:28:33.138Z,1.60
2018-04-16T23:38:36.316Z,1.70
2018-04-16T23:48:39.524Z,1.70
2018-04-16T23:58:42.767Z,1.73
